Time;durP1;ratioP1;P1;durP2;ratioP2;P2;SDS_P1;SDS_P2;PMS_P1;PMS_P2;Temp;Humidity;BMP_temperature;BMP_pressure;BME280_temperature;BME280_humidity;BME280_pressure;Samples;Min_cycle;Max_cycle;Signal;HPM_P1;HPM_P2
2022/08/15 00:01:27;;;;;;;;;;;;;;;23.18;80.04;96254.31;626825;226;65832;-64
2022/08/15 00:03:56;;;;;;;;;;;;;;;23.17;80.07;96242.80;626783;226;64428;-64
2022/08/15 00:06:25;;;;;;;;;;;;;;;23.17;80.12;96245.48;626813;226;64615;-64
2022/08/15 00:08:54;;;;;;;;;;;;;;;23.18;80.10;96249.73;626833;226;62797;-63
2022/08/15 00:11:23;;;;;;;;;;;;;;;23.18;80.06;96248.95;626831;226;64320;-64
2022/08/15 00:13:52;;;;;;;;;;;;;;;23.17;80.15;96256.20;626764;226;66649;-63
2022/08/15 00:16:20;;;;;;;;;;;;;;;23.17;80.16;96247.38;626825;226;62751;-63
2022/08/15 00:18:48;;;;;;;;;;;;;;;23.17;80.12;96250.06;626786;226;66909;-64
2022/08/15 00:21:17;;;;;;;;;;;;;;;23.16;80.09;96254.62;626853;226;66454;-64
2022/08/15 00:23:44;;;;;;;;;;;;;;;23.16;80.10;96254.62;626821;226;62729;-63
2022/08/15 00:26:13;;;;;;;;;;;;;;;23.16;80.17;96254.62;626877;226;64486;-63
2022/08/15 00:28:40;;;;;;;;;;;;;;;23.17;80.14;96255.42;626814;226;67026;-64
2022/08/15 00:31:10;;;;;;;;;;;;;;;23.17;80.14;96261.56;626825;226;62700;-64
2022/08/15 00:33:38;;;;;;;;;;;;;;;23.16;80.10;96259.99;626814;226;64568;-63
2022/08/15 00:36:07;;;;;;;;;;;;;;;23.16;80.23;96264.53;626823;226;66666;-63
2022/08/15 00:38:35;;;;;;;;;;;;;;;23.16;80.24;96254.62;626804;226;65060;-64
2022/08/15 00:43:55;;;;;;;;;;;;;;;23.16;80.23;96253.81;626870;226;65427;-62
2022/08/15 00:46:25;;;;;;;;;;;;;;;23.16;80.27;96249.27;626836;226;62922;-63
2022/08/15 00:48:53;;;;;;;;;;;;;;;23.16;80.22;96251.95;626785;226;66409;-63
2022/08/15 00:51:25;;;;;;;;;;;;;;;23.16;80.24;96253.81;626793;226;67742;-63
2022/08/15 00:53:55;;;;;;;;;;;;;;;23.16;80.26;96251.95;626668;226;62656;-63
2022/08/15 00:56:24;;;;;;;;;;;;;;;23.16;80.29;96254.62;626849;226;67266;-62
2022/08/15 00:58:52;;;;;;;;;;;;;;;23.16;80.19;96253.81;626813;226;67531;-68
2022/08/15 01:01:20;;;;;;;;;;;;;;;23.15;80.27;96258.39;626833;226;65299;-69
2022/08/15 01:03:48;;;;;;;;;;;;;;;23.16;80.29;96253.81;626790;226;64647;-62
2022/08/15 01:06:19;;;;;;;;;;;;;;;23.15;80.20;96247.67;626810;226;67425;-63
2022/08/15 01:08:47;;;;;;;;;;;;;;;23.15;80.26;96249.56;626862;226;65091;-64
2022/08/15 01:11:24;;;;;;;;;;;;;;;23.15;80.24;96244.98;626850;226;66840;-63
2022/08/15 01:13:54;;;;;;;;;;;;;;;23.15;80.19;96246.88;626849;226;44851;-62
2022/08/15 01:16:23;;;;;;;;;;;;;;;23.15;80.14;96252.24;626794;226;63749;-62
2022/08/15 01:18:51;;;;;;;;;;;;;;;23.15;80.20;96252.24;622215;226;66808;-62
2022/08/15 01:21:26;;;;;;;;;;;;;;;23.16;80.23;96253.81;622171;228;64389;-63
2022/08/15 01:24:04;;;;;;;;;;;;;;;23.15;80.20;96258.39;622195;227;65067;-63
2022/08/15 01:26:33;;;;;;;;;;;;;;;23.15;80.15;96257.60;622152;227;66905;-62
2022/08/15 01:29:02;;;;;;;;;;;;;;;23.14;80.16;96251.45;622169;228;66818;-62
2022/08/15 01:31:30;;;;;;;;;;;;;;;23.13;80.16;96249.85;622223;228;62755;-63
2022/08/15 01:34:00;;;;;;;;;;;;;;;23.14;80.17;96251.45;622183;228;66731;-62
2022/08/15 01:36:29;;;;;;;;;;;;;;;23.14;80.26;96246.09;622244;228;64869;-63
2022/08/15 01:39:01;;;;;;;;;;;;;;;23.14;80.20;96242.63;622285;228;65073;-62
2022/08/15 01:41:33;;;;;;;;;;;;;;;23.14;80.17;96240.73;622149;228;66960;-62
2022/08/15 01:44:19;;;;;;;;;;;;;;;23.14;80.18;96246.09;622174;227;72060;-62
2022/08/15 01:46:50;;;;;;;;;;;;;;;23.13;80.13;96241.81;622189;228;65824;-62
2022/08/15 01:49:19;;;;;;;;;;;;;;;23.14;80.16;96240.73;621691;228;64588;-63
2022/08/15 01:51:47;;;;;;;;;;;;;;;23.13;80.19;96247.17;622149;227;66811;-62
2022/08/15 01:54:15;;;;;;;;;;;;;;;23.14;80.18;96242.63;622249;228;65027;-62
2022/08/15 01:56:48;;;;;;;;;;;;;;;23.14;80.19;96246.09;622211;228;67458;-63
2022/08/15 01:59:18;;;;;;;;;;;;;;;23.14;80.27;96239.95;622220;228;66851;-62
2022/08/15 02:01:47;;;;;;;;;;;;;;;23.14;80.27;96237.27;622218;228;62880;-63
2022/08/15 02:04:16;;;;;;;;;;;;;;;23.13;80.30;96230.30;622159;228;66666;-62
2022/08/15 02:06:44;;;;;;;;;;;;;;;23.13;80.26;96235.66;622278;228;64593;-63
2022/08/15 02:09:15;;;;;;;;;;;;;;;23.13;80.30;96236.45;622183;228;63038;-63
2022/08/15 02:11:43;;;;;;;;;;;;;;;23.13;80.30;96238.34;622209;228;67211;-62
2022/08/15 02:14:11;;;;;;;;;;;;;;;23.13;80.29;96239.12;622168;228;67817;-62
2022/08/15 02:16:40;;;;;;;;;;;;;;;23.14;80.28;96240.73;622165;226;65417;-62
2022/08/15 02:19:09;;;;;;;;;;;;;;;23.13;80.29;96233.77;622212;228;67066;-62
2022/08/15 02:21:37;;;;;;;;;;;;;;;23.12;80.33;96234.88;622241;228;66793;-62
2022/08/15 02:24:06;;;;;;;;;;;;;;;23.13;80.28;96241.02;622246;228;63079;-68
2022/08/15 02:26:34;;;;;;;;;;;;;;;23.12;80.28;96237.56;622248;228;63984;-68
2022/08/15 02:29:01;;;;;;;;;;;;;;;23.12;80.29;96240.23;622209;228;66543;-68
2022/08/15 02:31:30;;;;;;;;;;;;;;;23.12;80.28;96236.77;622188;228;62939;-68
2022/08/15 02:33:59;;;;;;;;;;;;;;;23.12;80.30;96232.20;622252;228;66711;-68
2022/08/15 02:36:28;;;;;;;;;;;;;;;23.13;80.33;96232.98;622200;228;66969;-68
2022/08/15 02:38:58;;;;;;;;;;;;;;;23.11;80.30;96227.95;622215;228;62464;-68
2022/08/15 02:41:28;;;;;;;;;;;;;;;23.11;80.25;96224.45;622098;227;64089;-68
2022/08/15 02:43:56;;;;;;;;;;;;;;;23.11;80.28;96225.27;622212;228;64521;-69
2022/08/15 02:46:24;;;;;;;;;;;;;;;23.12;80.21;96226.84;622268;228;65054;-69
2022/08/15 02:48:53;;;;;;;;;;;;;;;23.12;80.24;96220.69;622233;227;47934;-69
2022/08/15 02:51:22;;;;;;;;;;;;;;;23.12;80.27;96218.80;622214;228;67005;-69
2022/08/15 02:53:50;;;;;;;;;;;;;;;23.11;80.21;96230.63;622192;228;65070;-69
2022/08/15 02:56:20;;;;;;;;;;;;;;;23.11;80.15;96227.95;622164;228;66937;-69
2022/08/15 02:58:48;;;;;;;;;;;;;;;23.11;80.14;96225.27;622200;228;64638;-69
2022/08/15 03:01:17;;;;;;;;;;;;;;;23.12;80.15;96228.73;622237;228;65082;-69
2022/08/15 03:03:48;;;;;;;;;;;;;;;23.12;80.21;96229.52;622216;227;45604;-68
2022/08/15 03:06:17;;;;;;;;;;;;;;;23.11;80.19;96230.63;622225;228;64251;-68
2022/08/15 03:08:45;;;;;;;;;;;;;;;23.11;80.24;96232.48;622160;228;65045;-69
2022/08/15 03:11:14;;;;;;;;;;;;;;;23.11;80.25;96240.53;622194;228;67330;-69
2022/08/15 03:13:42;;;;;;;;;;;;;;;23.11;80.25;96235.98;622223;228;64783;-69
2022/08/15 03:16:10;;;;;;;;;;;;;;;23.10;80.24;96229.02;622208;228;64943;-69
2022/08/15 03:18:41;;;;;;;;;;;;;;;23.11;80.23;96221.77;622196;226;64651;-69
2022/08/15 03:21:10;;;;;;;;;;;;;;;23.11;80.23;96229.81;622199;228;66899;-69
2022/08/15 03:23:38;;;;;;;;;;;;;;;23.10;80.26;96228.23;622154;228;65720;-69
2022/08/15 03:26:05;;;;;;;;;;;;;;;23.10;80.22;96225.55;622266;228;64952;-69
2022/08/15 03:28:33;;;;;;;;;;;;;;;23.10;80.23;96229.02;622232;228;67198;-69
2022/08/15 03:31:04;;;;;;;;;;;;;;;23.10;80.16;96223.66;622123;227;43899;-69
2022/08/15 03:33:33;;;;;;;;;;;;;;;23.10;80.14;96237.06;622196;228;64379;-63
2022/08/15 03:36:00;;;;;;;;;;;;;;;23.10;80.20;96231.70;622186;228;66750;-63
2022/08/15 03:38:28;;;;;;;;;;;;;;;23.09;80.21;96230.13;622182;227;65700;-63
2022/08/15 03:40:55;;;;;;;;;;;;;;;23.09;80.19;96238.16;622251;228;64436;-63
2022/08/15 03:43:28;;;;;;;;;;;;;;;23.09;80.19;96240.84;622187;228;65639;-63
2022/08/15 03:45:58;;;;;;;;;;;;;;;23.10;80.14;96241.63;622195;228;66236;-63
2022/08/15 03:48:29;;;;;;;;;;;;;;;23.09;80.18;96246.20;622155;228;65048;-63
2022/08/15 03:50:58;;;;;;;;;;;;;;;23.09;80.18;96243.53;622188;228;64744;-63
2022/08/15 03:53:30;;;;;;;;;;;;;;;23.09;80.24;96253.46;622215;228;65033;-63
2022/08/15 03:56:00;;;;;;;;;;;;;;;23.09;80.20;96254.25;622176;228;66954;-63
2022/08/15 03:58:28;;;;;;;;;;;;;;;23.08;80.19;96258.03;622193;228;67227;-63
2022/08/15 04:00:58;;;;;;;;;;;;;;;23.09;80.19;96250.78;622153;228;62985;-63
2022/08/15 04:03:27;;;;;;;;;;;;;;;23.08;80.17;96260.72;622160;228;64457;-63
2022/08/15 04:05:57;;;;;;;;;;;;;;;23.08;80.20;96266.08;622155;228;64125;-63
2022/08/15 04:08:26;;;;;;;;;;;;;;;23.09;80.20;96266.86;622220;228;63660;-69
2022/08/15 04:10:55;;;;;;;;;;;;;;;23.08;80.23;96268.75;622141;228;66905;-69
2022/08/15 04:13:24;;;;;;;;;;;;;;;23.08;80.21;96268.75;622131;228;67134;-69
2022/08/15 04:15:52;;;;;;;;;;;;;;;23.08;80.18;96266.08;622173;228;63013;-70
2022/08/15 04:18:20;;;;;;;;;;;;;;;23.08;80.12;96263.39;622167;226;66915;-69
2022/08/15 04:20:49;;;;;;;;;;;;;;;23.08;80.12;96260.72;622228;228;64697;-69
2022/08/15 04:23:16;;;;;;;;;;;;;;;23.08;80.11;96265.25;622177;228;66435;-69
2022/08/15 04:25:46;;;;;;;;;;;;;;;23.08;80.10;96265.25;622190;228;66884;-69
2022/08/15 04:28:15;;;;;;;;;;;;;;;23.07;80.09;96261.79;622138;228;64683;-69
2022/08/15 04:30:44;;;;;;;;;;;;;;;23.07;80.07;96267.15;622201;228;65757;-69
2022/08/15 04:33:14;;;;;;;;;;;;;;;23.07;80.12;96264.47;622158;228;64395;-69
2022/08/15 04:35:42;;;;;;;;;;;;;;;23.08;80.04;96267.94;622224;228;66791;-69
2022/08/15 04:38:10;;;;;;;;;;;;;;;23.08;80.08;96267.94;622147;228;65089;-69
2022/08/15 04:40:38;;;;;;;;;;;;;;;23.08;80.10;96270.62;622127;228;68299;-69
2022/08/15 04:43:06;;;;;;;;;;;;;;;23.07;80.08;96261.79;622134;228;66695;-69
2022/08/15 04:45:34;;;;;;;;;;;;;;;23.08;80.06;96262.58;622171;228;65175;-69
2022/08/15 04:48:03;;;;;;;;;;;;;;;23.08;80.08;96270.62;622116;228;64499;-69
2022/08/15 04:50:34;;;;;;;;;;;;;;;23.07;80.10;96267.15;622170;228;67308;-69
2022/08/15 04:53:05;;;;;;;;;;;;;;;23.07;80.10;96277.08;622175;226;43950;-69
2022/08/15 04:55:33;;;;;;;;;;;;;;;23.07;80.12;96275.19;622242;228;66998;-70
2022/08/15 04:58:01;;;;;;;;;;;;;;;23.08;80.14;96271.44;622201;228;64206;-69
2022/08/15 05:00:30;;;;;;;;;;;;;;;23.07;80.10;96269.04;622165;228;65047;-69
2022/08/15 05:03:13;;;;;;;;;;;;;;;23.07;80.13;96269.04;622237;228;44041;-69
2022/08/15 05:05:42;;;;;;;;;;;;;;;23.07;80.05;96277.08;622200;228;64623;-68
2022/08/15 05:08:10;;;;;;;;;;;;;;;23.06;80.12;96268.25;622103;228;63081;-62
2022/08/15 05:10:39;;;;;;;;;;;;;;;23.06;80.09;96273.62;622215;228;66790;-63
2022/08/15 05:13:12;;;;;;;;;;;;;;;23.06;80.08;96276.30;618636;228;68377;-65
2022/08/15 05:15:40;;;;;;;;;;;;;;;23.05;80.03;96272.02;622248;228;65248;-63
2022/08/15 05:18:08;;;;;;;;;;;;;;;23.06;80.03;96275.51;625316;226;66844;-63
2022/08/15 05:20:36;;;;;;;;;;;;;;;23.06;80.10;96276.30;626837;226;64541;-64
2022/08/15 05:23:05;;;;;;;;;;;;;;;23.06;80.13;96278.19;626749;226;65631;-63
2022/08/15 05:25:35;;;;;;;;;;;;;;;23.06;80.14;96267.47;626796;226;43933;-64
2022/08/15 05:28:03;;;;;;;;;;;;;;;23.06;80.15;96267.47;626807;226;67199;-63
2022/08/15 05:30:31;;;;;;;;;;;;;;;23.04;80.12;96273.91;626805;226;65055;-63
2022/08/15 05:33:06;;;;;;;;;;;;;;;23.06;80.12;96275.51;626820;226;64392;-64
2022/08/15 05:35:35;;;;;;;;;;;;;;;23.06;80.15;96280.87;626444;226;67270;-64
2022/08/15 05:38:04;;;;;;;;;;;;;;;23.05;80.05;96282.73;626787;226;64510;-64
2022/08/15 05:40:34;;;;;;;;;;;;;;;23.04;80.03;96276.58;626819;226;66908;-64
2022/08/15 05:43:03;;;;;;;;;;;;;;;23.04;79.99;96276.58;626631;226;66832;-64
2022/08/15 05:45:39;;;;;;;;;;;;;;;23.05;80.02;96285.41;626801;226;63059;-64
2022/08/15 05:48:19;;;;;;;;;;;;;;;23.04;80.04;96289.20;626662;226;66671;-64
2022/08/15 05:50:54;;;;;;;;;;;;;;;23.04;80.03;96297.23;626769;226;65389;-67
2022/08/15 05:53:36;;;;;;;;;;;;;;;23.04;79.31;96305.27;626053;226;62907;-65
2022/08/15 05:56:20;;;;;;;;;;;;;;;23.05;79.63;96301.48;626746;226;64800;-63
2022/08/15 05:58:50;;;;;;;;;;;;;;;23.05;79.81;96304.17;626410;226;66727;-64
2022/08/15 06:01:20;;;;;;;;;;;;;;;23.03;80.01;96304.48;617453;226;43532;-63
2022/08/15 06:03:51;;;;;;;;;;;;;;;23.04;80.04;96299.91;618790;229;64690;-61
2022/08/15 06:06:20;;;;;;;;;;;;;;;23.02;79.99;96302.88;619057;229;66846;-60
2022/08/15 06:08:49;;;;;;;;;;;;;;;23.04;79.95;96294.55;619618;229;65016;-62
2022/08/15 06:11:26;;;;;;;;;;;;;;;23.03;79.86;96292.98;619580;229;64279;-64
2022/08/15 06:13:58;;;;;;;;;;;;;;;23.02;79.64;96292.16;619531;229;66733;-60
2022/08/15 06:16:29;;;;;;;;;;;;;;;23.03;78.99;96292.98;619569;229;63789;-63
2022/08/15 06:18:58;;;;;;;;;;;;;;;23.03;79.70;96284.94;619449;229;66859;-63
2022/08/15 06:21:30;;;;;;;;;;;;;;;23.04;79.82;96289.20;619544;229;65422;-63
2022/08/15 06:24:11;;;;;;;;;;;;;;;23.04;79.98;96287.30;618635;229;65057;-65
2022/08/15 06:26:50;;;;;;;;;;;;;;;23.04;80.07;96284.62;619478;229;66739;-64
2022/08/15 06:29:22;;;;;;;;;;;;;;;23.06;80.12;96289.70;619379;229;66838;-63
2022/08/15 06:31:53;;;;;;;;;;;;;;;23.07;80.18;96293.16;619400;229;64889;-62
2022/08/15 06:34:37;;;;;;;;;;;;;;;23.07;80.13;96301.98;619488;229;66954;-63
2022/08/15 06:37:10;;;;;;;;;;;;;;;23.07;80.18;96293.16;619595;229;66242;-62
2022/08/15 06:39:39;;;;;;;;;;;;;;;23.07;80.35;96293.16;619203;229;65786;-62
2022/08/15 06:42:09;;;;;;;;;;;;;;;23.07;80.37;96283.23;619566;229;64318;-65
2022/08/15 06:44:45;;;;;;;;;;;;;;;23.08;80.28;96290.20;614856;229;44249;-65
2022/08/15 06:47:14;;;;;;;;;;;;;;;23.08;80.46;96295.55;619606;229;65141;-62
2022/08/15 06:49:43;;;;;;;;;;;;;;;23.09;80.43;96289.09;619599;229;64424;-63
2022/08/15 06:52:11;;;;;;;;;;;;;;;23.09;80.46;96297.13;619543;229;63234;-62
2022/08/15 06:54:39;;;;;;;;;;;;;;;23.09;80.46;96296.34;619542;229;65071;-63
2022/08/15 06:57:10;;;;;;;;;;;;;;;23.09;80.25;96293.66;619405;229;45301;-63
2022/08/15 06:59:54;;;;;;;;;;;;;;;23.10;80.32;96297.91;619540;229;66690;-64
2022/08/15 07:02:24;;;;;;;;;;;;;;;23.10;80.30;96295.23;619461;229;65529;-64
2022/08/15 07:04:55;;;;;;;;;;;;;;;23.11;80.34;96288.77;619584;229;67137;-62
2022/08/15 07:07:24;;;;;;;;;;;;;;;23.11;80.13;96294.95;619604;229;64646;-63
2022/08/15 07:10:10;;;;;;;;;;;;;;;23.11;80.18;96299.48;619518;229;65201;-64
2022/08/15 07:12:44;;;;;;;;;;;;;;;23.10;80.04;96293.34;619474;229;67178;-64
2022/08/15 07:15:17;;;;;;;;;;;;;;;23.12;79.99;96295.73;617339;229;46837;-65
2022/08/15 07:17:49;;;;;;;;;;;;;;;23.12;79.99;96298.41;619347;229;65056;-64
2022/08/15 07:20:18;;;;;;;;;;;;;;;23.11;79.67;96294.95;619570;229;67274;-67
2022/08/15 07:22:46;;;;;;;;;;;;;;;23.12;79.82;96306.45;619584;229;64809;-64
2022/08/15 07:25:16;;;;;;;;;;;;;;;23.12;79.82;96307.23;619444;229;65781;-64
2022/08/15 07:27:46;;;;;;;;;;;;;;;23.13;79.85;96305.34;619611;229;67443;-67
2022/08/15 07:30:19;;;;;;;;;;;;;;;23.10;77.65;96314.78;619217;229;64609;-64
2022/08/15 07:32:50;;;;;;;;;;;;;;;23.13;78.26;96314.17;619577;229;65117;-65
2022/08/15 07:35:28;;;;;;;;;;;;;;;23.13;78.52;96311.50;619464;229;67456;-64
2022/08/15 07:37:58;;;;;;;;;;;;;;;23.13;76.84;96313.39;619570;229;65511;-64
2022/08/15 07:40:43;;;;;;;;;;;;;;;23.15;78.81;96306.64;619537;229;62963;-64
2022/08/15 07:43:30;;;;;;;;;;;;;;;23.14;79.21;96315.78;619599;229;67606;-64
2022/08/15 07:46:07;;;;;;;;;;;;;;;23.15;79.32;96313.89;619400;229;45191;-64
2022/08/15 07:48:35;;;;;;;;;;;;;;;23.13;79.46;96314.17;619609;229;65311;-64
2022/08/15 07:51:09;;;;;;;;;;;;;;;23.14;79.49;96315.78;619410;229;44830;-62
2022/08/15 07:53:38;;;;;;;;;;;;;;;23.13;79.56;96306.14;619492;229;66949;-63
2022/08/15 07:56:16;;;;;;;;;;;;;;;23.14;79.51;96310.42;619129;229;64962;-63
2022/08/15 07:58:44;;;;;;;;;;;;;;;23.14;79.52;96314.99;619545;229;64810;-63
2022/08/15 08:01:16;;;;;;;;;;;;;;;23.13;79.61;96308.81;619496;229;67644;-63
2022/08/15 08:03:45;;;;;;;;;;;;;;;23.13;79.58;96308.81;619395;229;65402;-63
2022/08/15 08:06:22;;;;;;;;;;;;;;;23.14;78.18;96310.42;619631;229;68287;-63
2022/08/15 08:08:51;;;;;;;;;;;;;;;23.15;79.19;96311.99;619472;229;67594;-63
2022/08/15 08:11:38;;;;;;;;;;;;;;;23.15;79.65;96309.31;619548;229;58728;-64
2022/08/15 08:14:08;;;;;;;;;;;;;;;23.15;79.65;96306.64;619521;229;67244;-63
2022/08/15 08:16:40;;;;;;;;;;;;;;;23.15;79.83;96314.67;617952;229;64592;-63
2022/08/15 08:19:11;;;;;;;;;;;;;;;23.16;79.83;96313.59;614918;229;63079;-63
2022/08/15 08:21:42;;;;;;;;;;;;;;;23.14;79.74;96307.73;615042;229;64175;-63
2022/08/15 08:24:14;;;;;;;;;;;;;;;23.15;79.67;96311.99;615091;230;67750;-62
2022/08/15 08:26:48;;;;;;;;;;;;;;;23.16;79.64;96315.46;614791;230;46756;-62
2022/08/15 08:29:18;;;;;;;;;;;;;;;23.15;79.63;96308.53;614918;230;65199;-66
2022/08/15 08:32:03;;;;;;;;;;;;;;;23.16;79.63;96312.78;615103;230;67010;-62
2022/08/15 08:34:32;;;;;;;;;;;;;;;23.15;79.54;96309.31;615079;230;65320;-65
2022/08/15 08:37:20;;;;;;;;;;;;;;;23.16;79.67;96308.23;614922;229;67106;-66
2022/08/15 08:39:55;;;;;;;;;;;;;;;23.15;79.59;96311.99;615082;229;67079;-65
2022/08/15 08:42:36;;;;;;;;;;;;;;;23.16;79.56;96304.74;615081;230;65589;-66
2022/08/15 08:45:12;;;;;;;;;;;;;;;23.16;79.50;96310.92;605141;230;64961;-66
2022/08/15 08:47:43;;;;;;;;;;;;;;;23.15;79.63;96306.64;614967;229;67280;-68
2022/08/15 08:50:21;;;;;;;;;;;;;;;23.16;79.74;96304.74;615066;230;65297;-67
2022/08/15 08:52:54;;;;;;;;;;;;;;;23.16;79.70;96310.92;614917;230;68302;-64
2022/08/15 08:55:23;;;;;;;;;;;;;;;23.16;79.67;96294.84;615001;230;64800;-64
2022/08/15 08:57:52;;;;;;;;;;;;;;;23.15;79.70;96295.91;615079;230;63545;-65
2022/08/15 09:00:21;;;;;;;;;;;;;;;23.16;79.65;96291.34;615043;230;67299;-64
2022/08/15 09:03:02;;;;;;;;;;;;;;;23.16;79.71;96283.30;615111;230;67040;-65
2022/08/15 09:05:51;;;;;;;;;;;;;;;23.17;79.73;96284.91;615015;230;63858;-64
2022/08/15 09:08:18;;;;;;;;;;;;;;;23.15;79.74;96277.16;614898;229;66085;-65
2022/08/15 09:10:47;;;;;;;;;;;;;;;23.16;79.75;96277.94;615079;230;66670;-65
2022/08/15 09:16:02;;;;;;;;;;;;;;;23.16;79.80;96268.03;615124;230;67147;-65
2022/08/15 09:18:31;;;;;;;;;;;;;;;23.16;79.80;96273.39;615012;229;67237;-64
2022/08/15 09:20:59;;;;;;;;;;;;;;;23.16;79.76;96270.72;615060;230;64864;-65
2022/08/15 09:23:28;;;;;;;;;;;;;;;23.16;79.72;96272.58;615074;230;67420;-64
2022/08/15 09:26:00;;;;;;;;;;;;;;;23.16;79.72;96262.67;614721;229;66981;-66
2022/08/15 09:28:32;;;;;;;;;;;;;;;23.16;79.73;96259.17;613650;229;64895;-66
2022/08/15 09:31:04;;;;;;;;;;;;;;;23.16;79.70;96253.81;615064;230;64645;-67
2022/08/15 09:33:36;;;;;;;;;;;;;;;23.16;79.71;96253.81;614938;229;64739;-65
2022/08/15 09:36:08;;;;;;;;;;;;;;;23.16;79.79;96259.99;614981;230;62734;-66
2022/08/15 09:38:43;;;;;;;;;;;;;;;23.17;79.57;96255.42;614806;229;64364;-66
2022/08/15 09:41:27;;;;;;;;;;;;;;;23.17;79.39;96252.73;614916;230;65670;-66
2022/08/15 09:44:13;;;;;;;;;;;;;;;23.16;79.52;96241.23;614626;229;65305;-70
2022/08/15 09:47:00;;;;;;;;;;;;;;;23.16;79.44;96248.45;614997;230;65105;-72
2022/08/15 09:49:40;;;;;;;;;;;;;;;23.17;79.62;96250.06;615033;230;64769;-72
2022/08/15 09:52:10;;;;;;;;;;;;;;;23.16;79.67;96243.09;613952;230;65963;-70
2022/08/15 09:54:45;;;;;;;;;;;;;;;23.16;79.57;96237.73;604583;230;64833;-69
2022/08/15 09:57:26;;;;;;;;;;;;;;;23.16;79.56;96245.77;614395;230;67716;-65
2022/08/15 09:59:58;;;;;;;;;;;;;;;23.15;79.74;96247.67;614306;229;65382;-65
2022/08/15 10:02:27;;;;;;;;;;;;;;;23.16;79.81;96248.45;614428;230;65041;-66
2022/08/15 10:04:56;;;;;;;;;;;;;;;23.15;79.68;96244.98;614529;230;63682;-66
2022/08/15 10:07:32;;;;;;;;;;;;;;;23.15;79.71;96242.30;615006;230;62908;-66
2022/08/15 10:10:01;;;;;;;;;;;;;;;23.16;79.69;96240.41;614984;230;67078;-66
2022/08/15 10:12:29;;;;;;;;;;;;;;;23.16;79.65;96245.77;615021;230;64880;-66
2022/08/15 10:15:02;;;;;;;;;;;;;;;23.15;79.56;96246.88;615043;230;65009;-65
2022/08/15 10:17:35;;;;;;;;;;;;;;;23.16;79.57;96243.09;614946;229;67040;-66
2022/08/15 10:20:16;;;;;;;;;;;;;;;23.15;79.67;96242.30;615111;230;66928;-66
2022/08/15 10:22:46;;;;;;;;;;;;;;;23.15;79.61;96234.27;615025;230;62747;-66
2022/08/15 10:25:36;;;;;;;;;;;;;;;23.16;79.56;96243.09;615063;230;66833;-67
2022/08/15 10:28:09;;;;;;;;;;;;;;;23.15;79.50;96242.30;615008;229;64813;-66
2022/08/15 10:30:35;;;;;;;;;;;;;;;23.16;79.50;96245.77;611253;230;65085;-67
2022/08/15 10:33:05;;;;;;;;;;;;;;;23.16;79.57;96243.09;614994;230;64929;-66
2022/08/15 10:35:46;;;;;;;;;;;;;;;23.15;79.55;96247.67;610707;230;65144;-67
2022/08/15 10:38:13;;;;;;;;;;;;;;;23.15;79.63;96247.67;614814;229;65222;-66
2022/08/15 10:40:42;;;;;;;;;;;;;;;23.15;79.49;96244.20;615105;230;65787;-67
2022/08/15 10:43:14;;;;;;;;;;;;;;;23.16;79.52;96249.27;614987;230;66645;-66
2022/08/15 10:45:50;;;;;;;;;;;;;;;23.15;79.48;96231.59;614994;229;64870;-66
2022/08/15 10:48:28;;;;;;;;;;;;;;;23.16;79.39;96243.91;614965;229;67361;-66
2022/08/15 10:51:01;;;;;;;;;;;;;;;23.15;79.41;96233.48;614867;230;66819;-66
2022/08/15 10:53:30;;;;;;;;;;;;;;;23.15;79.42;96236.95;614585;230;65015;-67
2022/08/15 10:56:08;;;;;;;;;;;;;;;23.16;79.35;96232.38;615022;230;64227;-65
2022/08/15 10:58:36;;;;;;;;;;;;;;;23.15;79.27;96234.27;615030;230;66944;-65
2022/08/15 11:01:20;;;;;;;;;;;;;;;23.15;79.21;96244.98;615018;230;65234;-65
2022/08/15 11:03:50;;;;;;;;;;;;;;;23.15;79.21;96236.95;615045;230;67071;-67
2022/08/15 11:06:20;;;;;;;;;;;;;;;23.14;79.28;96230.02;621365;228;66809;-66
2022/08/15 11:08:53;;;;;;;;;;;;;;;23.16;79.19;96232.38;620083;228;62681;-67
2022/08/15 11:11:22;;;;;;;;;;;;;;;23.14;79.20;96235.37;618267;228;64541;-66
2022/08/15 11:13:57;;;;;;;;;;;;;;;23.16;79.18;96235.87;618970;227;64476;-66
2022/08/15 11:16:26;;;;;;;;;;;;;;;23.16;79.20;96235.05;621992;228;64956;-66
2022/08/15 11:18:58;;;;;;;;;;;;;;;23.15;79.24;96228.12;619301;229;65092;-67
2022/08/15 11:21:43;;;;;;;;;;;;;;;23.16;77.98;96233.19;619632;229;67044;-67
2022/08/15 11:24:11;;;;;;;;;;;;;;;23.16;78.83;96222.47;619681;229;62814;-65
2022/08/15 11:26:40;;;;;;;;;;;;;;;23.16;78.93;96217.11;619585;229;67184;-66
2022/08/15 11:29:14;;;;;;;;;;;;;;;23.15;79.09;96218.19;619610;229;67680;-67
2022/08/15 11:31:43;;;;;;;;;;;;;;;23.15;78.98;96212.83;619690;229;62781;-67
2022/08/15 11:34:21;;;;;;;;;;;;;;;23.15;79.21;96223.55;619593;229;67060;-67
2022/08/15 11:36:49;;;;;;;;;;;;;;;23.15;79.15;96218.19;619368;229;66951;-69
2022/08/15 11:39:18;;;;;;;;;;;;;;;23.15;79.10;96220.87;619663;229;62684;-69
2022/08/15 11:41:47;;;;;;;;;;;;;;;23.16;79.06;96216.30;619637;229;67160;-69
2022/08/15 11:44:15;;;;;;;;;;;;;;;23.15;79.05;96215.50;619696;229;64581;-69
2022/08/15 11:46:45;;;;;;;;;;;;;;;23.15;79.15;96218.19;619675;229;64898;-67
2022/08/15 11:49:14;;;;;;;;;;;;;;;23.15;79.12;96207.47;619502;229;67047;-66
2022/08/15 11:51:43;;;;;;;;;;;;;;;23.15;79.12;96217.40;618969;229;65022;-65
2022/08/15 11:54:15;;;;;;;;;;;;;;;23.15;79.21;96202.10;619651;229;65153;-66
2022/08/15 11:56:50;;;;;;;;;;;;;;;23.15;79.09;96218.19;619581;229;67246;-67
2022/08/15 11:59:31;;;;;;;;;;;;;;;23.15;79.48;96210.14;619656;229;66884;-64
2022/08/15 12:02:03;;;;;;;;;;;;;;;23.16;79.32;96217.11;619654;229;65208;-65
2022/08/15 12:04:33;;;;;;;;;;;;;;;23.15;79.07;96207.47;619670;229;64211;-66
2022/08/15 12:07:11;;;;;;;;;;;;;;;23.15;79.11;96210.14;619754;229;67054;-66
2022/08/15 12:09:39;;;;;;;;;;;;;;;23.14;79.11;96200.53;619738;229;65193;-66
2022/08/15 12:12:08;;;;;;;;;;;;;;;23.15;79.14;96202.10;619607;229;66944;-66
2022/08/15 12:14:37;;;;;;;;;;;;;;;23.15;79.17;96199.42;619267;229;67212;-66
2022/08/15 12:17:05;;;;;;;;;;;;;;;23.15;79.20;96207.47;620914;226;65170;-66
2022/08/15 12:19:40;;;;;;;;;;;;;;;23.15;79.12;96204.78;626742;226;67247;-66
2022/08/15 12:22:14;;;;;;;;;;;;;;;23.16;79.19;96206.39;626795;226;65470;-66
2022/08/15 12:24:43;;;;;;;;;;;;;;;23.15;79.18;96204.00;626716;226;62684;-66
2022/08/15 12:27:12;;;;;;;;;;;;;;;23.15;79.12;96204.78;626655;226;67340;-65
2022/08/15 12:29:40;;;;;;;;;;;;;;;23.16;79.19;96205.57;626777;226;67103;-65
2022/08/15 12:32:09;;;;;;;;;;;;;;;23.15;79.15;96202.10;626697;226;62662;-65
2022/08/15 12:34:38;;;;;;;;;;;;;;;23.16;79.16;96205.57;626845;226;67057;-66
2022/08/15 12:37:07;;;;;;;;;;;;;;;23.16;79.25;96190.30;625859;226;67134;-65
2022/08/15 12:39:36;;;;;;;;;;;;;;;23.16;79.19;96194.84;626686;226;65072;-65
2022/08/15 12:42:04;;;;;;;;;;;;;;;23.15;79.17;96188.70;626682;226;72400;-65
2022/08/15 12:44:33;;;;;;;;;;;;;;;23.16;79.19;96184.13;626722;226;65106;-65
2022/08/15 12:47:01;;;;;;;;;;;;;;;23.16;79.18;96182.27;626688;226;62734;-65
2022/08/15 12:49:28;;;;;;;;;;;;;;;23.16;79.20;96184.95;626757;226;64828;-66
2022/08/15 12:51:56;;;;;;;;;;;;;;;23.15;79.29;96177.98;626610;226;67011;-66
2022/08/15 12:54:23;;;;;;;;;;;;;;;23.16;78.93;96184.13;626647;226;64974;-65
2022/08/15 12:56:51;;;;;;;;;;;;;;;23.15;79.05;96188.70;626691;226;67138;-66
2022/08/15 12:59:18;;;;;;;;;;;;;;;23.16;79.02;96178.77;626727;226;66644;-66
2022/08/15 13:01:46;;;;;;;;;;;;;;;23.16;79.08;96182.27;626724;226;65017;-66
2022/08/15 13:04:14;;;;;;;;;;;;;;;23.16;79.10;96174.22;626775;226;64800;-66
2022/08/15 13:06:45;;;;;;;;;;;;;;;23.16;79.04;96171.55;626675;226;67215;-66
2022/08/15 13:09:14;;;;;;;;;;;;;;;23.16;79.09;96174.22;626701;226;62810;-66
2022/08/15 13:11:42;;;;;;;;;;;;;;;23.17;79.10;96185.73;626787;226;67229;-66
2022/08/15 13:14:11;;;;;;;;;;;;;;;23.16;79.10;96178.77;626632;226;64935;-73